Time;durP1;ratioP1;P1;durP2;ratioP2;P2;SDS_P1;SDS_P2;PMS_P1;PMS_P2;Temp;Humidity;BMP_temperature;BMP_pressure;BME280_temperature;BME280_humidity;BME280_pressure;Samples;Min_cycle;Max_cycle;Signal;HPM_P1;HPM_P2
2024/01/28 00:00:11;;;;;;;1.00;0.95;;;;;;;;;;5080727;28;20047;-83
2024/01/28 00:02:58;;;;;;;0.30;0.30;;;;;;;;;;5081841;28;20043;-83
2024/01/28 00:05:24;;;;;;;3.20;0.40;;;;;;;;;;5081326;28;20086;-83
2024/01/28 00:08:03;;;;;;;0.55;0.55;;;;;;;;;;5080286;28;20036;-84
2024/01/28 00:10:50;;;;;;;1.88;1.17;;;;;;;;;;5082289;28;20031;-84
2024/01/28 00:17:01;;;;;;;0.95;0.52;;;;;;;;;;5081335;28;20044;-83
2024/01/28 00:19:49;;;;;;;0.57;0.57;;;;;;;;;;5081767;28;20031;-81
2024/01/28 00:22:14;;;;;;;0.73;0.50;;;;;;;;;;5082528;28;20028;-81
2024/01/28 00:24:55;;;;;;;0.32;0.32;;;;;;;;;;5084061;28;20039;-83
2024/01/28 00:27:47;;;;;;;1.67;0.63;;;;;;;;;;5079313;28;20027;-84
2024/01/28 00:30:30;;;;;;;1.27;1.27;;;;;;;;;;5082656;28;20024;-85
2024/01/28 00:32:58;;;;;;;1.48;1.38;;;;;;;;;;5076084;28;20036;-81
2024/01/28 00:35:36;;;;;;;1.88;1.25;;;;;;;;;;5071970;28;20033;-81
2024/01/28 00:38:02;;;;;;;3.05;0.68;;;;;;;;;;5076493;28;20163;-82
2024/01/28 00:40:35;;;;;;;0.38;0.38;;;;;;;;;;5077210;28;20063;-84
2024/01/28 00:43:02;;;;;;;1.77;0.93;;;;;;;;;;5075442;28;20392;-82
2024/01/28 00:45:34;;;;;;;2.40;1.30;;;;;;;;;;5077969;28;20028;-83
2024/01/28 00:48:03;;;;;;;0.40;0.40;;;;;;;;;;5078491;28;20031;-81
2024/01/28 00:50:31;;;;;;;0.85;0.82;;;;;;;;;;5081577;28;20388;-81
2024/01/28 00:52:57;;;;;;;2.22;1.33;;;;;;;;;;5077858;28;20028;-80
2024/01/28 00:55:22;;;;;;;2.38;0.93;;;;;;;;;;5073552;28;20028;-79
2024/01/28 00:57:48;;;;;;;1.90;0.50;;;;;;;;;;5075482;28;20021;-82
2024/01/28 01:00:31;;;;;;;1.02;0.85;;;;;;;;;;5077712;28;20483;-82
2024/01/28 01:03:02;;;;;;;0.80;0.70;;;;;;;;;;5077282;28;20052;-82
2024/01/28 01:05:41;;;;;;;0.40;0.40;;;;;;;;;;5079726;28;20061;-81
2024/01/28 01:08:12;;;;;;;0.65;0.65;;;;;;;;;;5073805;28;20055;-82
2024/01/28 01:10:38;;;;;;;0.50;0.50;;;;;;;;;;5070961;28;20055;-81
2024/01/28 01:13:21;;;;;;;2.78;1.95;;;;;;;;;;5074090;28;20419;-81
2024/01/28 01:15:46;;;;;;;0.52;0.52;;;;;;;;;;5067810;28;20048;-79
2024/01/28 01:18:15;;;;;;;4.40;1.52;;;;;;;;;;5074941;28;20049;-80
2024/01/28 01:20:41;;;;;;;1.08;1.00;;;;;;;;;;5072382;28;20031;-83
2024/01/28 01:23:14;;;;;;;0.93;0.93;;;;;;;;;;5071174;28;21492;-81
2024/01/28 01:25:43;;;;;;;0.80;0.80;;;;;;;;;;5076748;28;20024;-80
2024/01/28 01:28:08;;;;;;;1.05;0.95;;;;;;;;;;5075824;28;20549;-79
2024/01/28 01:30:34;;;;;;;0.93;0.93;;;;;;;;;;5071445;28;20024;-81
2024/01/28 01:33:02;;;;;;;0.75;0.57;;;;;;;;;;5068298;28;20093;-80
2024/01/28 01:35:33;;;;;;;0.57;0.50;;;;;;;;;;5081721;28;20232;-81
2024/01/28 01:37:59;;;;;;;0.32;0.30;;;;;;;;;;5075267;28;20476;-79
2024/01/28 01:40:32;;;;;;;0.50;0.50;;;;;;;;;;5068378;28;20030;-81
2024/01/28 01:43:08;;;;;;;0.28;0.28;;;;;;;;;;5070819;28;20090;-80
2024/01/28 01:45:41;;;;;;;2.58;0.60;;;;;;;;;;5073775;28;20024;-84
2024/01/28 01:48:13;;;;;;;2.53;0.77;;;;;;;;;;5077057;28;20032;-79
2024/01/28 01:50:45;;;;;;;1.92;1.42;;;;;;;;;;5073651;28;20082;-81
2024/01/28 01:53:15;;;;;;;1.92;1.17;;;;;;;;;;5071818;28;20160;-81
2024/01/28 01:55:42;;;;;;;0.85;0.85;;;;;;;;;;5076327;28;20021;-82
2024/01/28 01:58:13;;;;;;;0.60;0.60;;;;;;;;;;5074867;28;20040;-82
2024/01/28 02:00:48;;;;;;;0.47;0.47;;;;;;;;;;5075246;28;20025;-81
2024/01/28 02:03:33;;;;;;;;;;;;;;;;;;;;;
2024/01/28 02:05:59;;;;;;;0.88;0.85;;;;;;;;;;5077308;28;20445;-80
2024/01/28 02:08:34;;;;;;;1.58;1.48;;;;;;;;;;5076266;28;20030;-80
2024/01/28 02:11:02;;;;;;;0.57;0.57;;;;;;;;;;5073990;28;20040;-84
2024/01/28 02:13:34;;;;;;;0.55;0.55;;;;;;;;;;5073043;28;20527;-82
2024/01/28 02:16:00;;;;;;;2.17;1.13;;;;;;;;;;5076060;28;20064;-80
2024/01/28 02:18:36;;;;;;;0.77;0.75;;;;;;;;;;5071870;28;20120;-83
2024/01/28 02:21:12;;;;;;;1.00;0.85;;;;;;;;;;5054153;28;20083;-84
2024/01/28 02:23:38;;;;;;;0.60;0.60;;;;;;;;;;5077816;28;20032;-81
2024/01/28 02:26:22;;;;;;;0.90;0.63;;;;;;;;;;5057885;28;20159;-81
2024/01/28 02:28:50;;;;;;;0.85;0.63;;;;;;;;;;5052300;28;20032;-82
2024/01/28 02:31:25;;;;;;;0.32;0.32;;;;;;;;;;5075677;28;20028;-82
2024/01/28 02:33:58;;;;;;;1.48;1.38;;;;;;;;;;5051360;28;20044;-82
2024/01/28 02:37:10;;;;;;;0.40;0.40;;;;;;;;;;5057789;28;20094;-81
2024/01/28 02:39:53;;;;;;;0.57;0.57;;;;;;;;;;5058796;28;20033;-80
2024/01/28 02:42:34;;;;;;;4.78;1.40;;;;;;;;;;5086432;28;20033;-82
2024/01/28 02:45:07;;;;;;;0.30;0.30;;;;;;;;;;5073241;28;20050;-82
2024/01/28 02:47:38;;;;;;;0.60;0.60;;;;;;;;;;5074016;28;20422;-82
2024/01/28 02:50:04;;;;;;;0.75;0.38;;;;;;;;;;5072456;28;20084;-80
2024/01/28 02:52:33;;;;;;;1.05;0.65;;;;;;;;;;5075272;28;20040;-82
2024/01/28 02:55:25;;;;;;;1.05;0.98;;;;;;;;;;5078179;28;20554;-82
2024/01/28 02:57:51;;;;;;;0.20;0.20;;;;;;;;;;5072829;28;20032;-81
2024/01/28 03:00:29;;;;;;;1.77;1.30;;;;;;;;;;5073614;28;20046;-82
2024/01/28 03:03:00;;;;;;;0.40;0.40;;;;;;;;;;5070676;28;20405;-81
2024/01/28 03:05:27;;;;;;;0.40;0.40;;;;;;;;;;5071995;28;20024;-80
2024/01/28 03:07:56;;;;;;;0.52;0.52;;;;;;;;;;5071465;28;20051;-81
2024/01/28 03:10:22;;;;;;;0.90;0.90;;;;;;;;;;5066571;28;20044;-81
2024/01/28 03:12:50;;;;;;;1.05;1.00;;;;;;;;;;5073486;28;20028;-81
2024/01/28 03:15:21;;;;;;;0.70;0.70;;;;;;;;;;5067714;28;20032;-79
2024/01/28 03:17:47;;;;;;;0.40;0.40;;;;;;;;;;5069901;28;20041;-79
2024/01/28 03:20:30;;;;;;;0.47;0.47;;;;;;;;;;5075984;28;20040;-81
2024/01/28 03:23:11;;;;;;;1.00;0.93;;;;;;;;;;5070829;28;20037;-84
2024/01/28 03:25:47;;;;;;;1.00;0.52;;;;;;;;;;5066713;28;20036;-80
2024/01/28 03:28:16;;;;;;;0.93;0.82;;;;;;;;;;5073910;28;20119;-83
2024/01/28 03:30:59;;;;;;;0.60;0.60;;;;;;;;;;5067684;28;20075;-83
2024/01/28 03:33:24;;;;;;;0.73;0.73;;;;;;;;;;5069215;28;20077;-81
2024/01/28 03:35:58;;;;;;;1.30;0.50;;;;;;;;;;5074534;28;20547;-79
2024/01/28 03:38:35;;;;;;;0.47;0.47;;;;;;;;;;5073893;28;20345;-82
2024/01/28 03:41:01;;;;;;;0.38;0.38;;;;;;;;;;5072525;28;20031;-81
2024/01/28 03:43:30;;;;;;;0.98;0.70;;;;;;;;;;5077793;28;20479;-81
2024/01/28 03:46:06;;;;;;;6.70;0.75;;;;;;;;;;5070090;28;20040;-82
2024/01/28 03:48:32;;;;;;;2.10;1.38;;;;;;;;;;5070475;28;20368;-82
2024/01/28 03:50:57;;;;;;;2.17;1.52;;;;;;;;;;5072203;28;20028;-81
2024/01/28 03:53:26;;;;;;;2.53;1.17;;;;;;;;;;5071272;28;20067;-83
2024/01/28 03:55:51;;;;;;;0.32;0.32;;;;;;;;;;5075441;28;20024;-82
2024/01/28 03:58:21;;;;;;;0.30;0.30;;;;;;;;;;5077696;28;20525;-81
2024/01/28 04:00:47;;;;;;;0.98;0.60;;;;;;;;;;5070270;28;20415;-80
2024/01/28 04:03:13;;;;;;;0.20;0.20;;;;;;;;;;5068469;28;20028;-81
2024/01/28 04:05:39;;;;;;;0.73;0.73;;;;;;;;;;5068430;28;20051;-81
2024/01/28 04:08:08;;;;;;;0.57;0.57;;;;;;;;;;5072231;28;20028;-81
2024/01/28 04:10:41;;;;;;;0.40;0.40;;;;;;;;;;5074695;28;20399;-80
2024/01/28 04:13:07;;;;;;;0.45;0.40;;;;;;;;;;5070918;28;20118;-82
2024/01/28 04:15:35;;;;;;;0.50;0.50;;;;;;;;;;5074467;28;20048;-81
2024/01/28 04:18:05;;;;;;;0.77;0.75;;;;;;;;;;5073383;28;20036;-82
2024/01/28 04:20:36;;;;;;;2.10;0.80;;;;;;;;;;5071571;28;20109;-83
2024/01/28 04:23:11;;;;;;;2.42;2.17;;;;;;;;;;5073964;28;20035;-81
2024/01/28 04:25:54;;;;;;;0.32;0.32;;;;;;;;;;5075050;28;20031;-81
2024/01/28 04:28:30;;;;;;;0.98;0.73;;;;;;;;;;5091741;28;20032;-83
2024/01/28 04:31:07;;;;;;;0.55;0.55;;;;;;;;;;5076652;28;20036;-80
2024/01/28 04:33:36;;;;;;;1.08;0.93;;;;;;;;;;5089239;28;20028;-81
2024/01/28 04:36:02;;;;;;;1.30;1.30;;;;;;;;;;5072502;28;20044;-82
2024/01/28 04:38:36;;;;;;;0.57;0.57;;;;;;;;;;5072733;28;20091;-83
2024/01/28 04:41:14;;;;;;;0.40;0.40;;;;;;;;;;5073387;28;20143;-82
2024/01/28 04:43:42;;;;;;;0.57;0.57;;;;;;;;;;5074258;28;20055;-82
2024/01/28 04:46:12;;;;;;;0.30;0.30;;;;;;;;;;5083111;28;20020;-80
2024/01/28 04:48:47;;;;;;;0.32;0.32;;;;;;;;;;5080490;28;20479;-81
2024/01/28 04:51:21;;;;;;;0.52;0.43;;;;;;;;;;5080564;28;20030;-81
2024/01/28 04:53:49;;;;;;;4.95;2.35;;;;;;;;;;5086272;28;20024;-85
2024/01/28 04:56:15;;;;;;;0.38;0.38;;;;;;;;;;5075305;28;20093;-80
2024/01/28 04:58:46;;;;;;;4.43;1.70;;;;;;;;;;5076297;28;20040;-83
2024/01/28 05:01:12;;;;;;;0.68;0.68;;;;;;;;;;5071158;28;20033;-80
2024/01/28 05:04:00;;;;;;;0.35;0.35;;;;;;;;;;5073840;28;20028;-85
2024/01/28 05:06:34;;;;;;;0.30;0.30;;;;;;;;;;5076219;28;20021;-82
2024/01/28 05:09:20;;;;;;;0.40;0.40;;;;;;;;;;5080315;28;20039;-83
2024/01/28 05:11:54;;;;;;;0.38;0.38;;;;;;;;;;5093128;28;20052;-81
2024/01/28 05:14:55;;;;;;;0.35;0.35;;;;;;;;;;5079750;28;20102;-81
2024/01/28 05:17:23;;;;;;;1.08;0.98;;;;;;;;;;5074037;28;20074;-81
2024/01/28 05:19:52;;;;;;;0.85;0.75;;;;;;;;;;5083490;28;20036;-82
2024/01/28 05:22:19;;;;;;;0.70;0.68;;;;;;;;;;5074722;28;20028;-81
2024/01/28 05:24:49;;;;;;;1.48;1.02;;;;;;;;;;5073777;28;20029;-82
2024/01/28 05:27:15;;;;;;;1.90;0.55;;;;;;;;;;5077058;28;20021;-81
2024/01/28 05:29:46;;;;;;;0.57;0.57;;;;;;;;;;5075345;28;20032;-81
2024/01/28 05:32:15;;;;;;;1.00;0.60;;;;;;;;;;5074981;28;20079;-82
2024/01/28 05:34:40;;;;;;;1.10;0.98;;;;;;;;;;5076384;28;20364;-84
2024/01/28 05:37:09;;;;;;;0.25;0.25;;;;;;;;;;5076074;28;20038;-79
2024/01/28 05:39:35;;;;;;;2.28;1.92;;;;;;;;;;5080384;28;20091;-80
2024/01/28 05:42:04;;;;;;;0.75;0.75;;;;;;;;;;5079354;28;20040;-81
2024/01/28 05:44:30;;;;;;;1.13;0.93;;;;;;;;;;5079546;28;20042;-82
2024/01/28 05:46:58;;;;;;;0.80;0.80;;;;;;;;;;5081158;28;20024;-82
2024/01/28 05:49:27;;;;;;;0.47;0.47;;;;;;;;;;5076774;28;20029;-83
2024/01/28 05:51:52;;;;;;;0.75;0.75;;;;;;;;;;5080132;28;20539;-82
2024/01/28 05:54:30;;;;;;;0.50;0.50;;;;;;;;;;5077276;28;20116;-79
2024/01/28 05:56:56;;;;;;;0.45;0.45;;;;;;;;;;5075917;28;20047;-83
2024/01/28 05:59:21;;;;;;;0.73;0.68;;;;;;;;;;5079046;28;20037;-82
2024/01/28 06:01:47;;;;;;;0.20;0.20;;;;;;;;;;5075425;28;20036;-83
2024/01/28 06:04:12;;;;;;;0.90;0.88;;;;;;;;;;5082564;28;20043;-82
2024/01/28 06:06:38;;;;;;;1.48;1.38;;;;;;;;;;5081421;28;20056;-80
2024/01/28 06:09:04;;;;;;;1.05;0.93;;;;;;;;;;5078025;28;20523;-81
2024/01/28 06:11:33;;;;;;;0.55;0.55;;;;;;;;;;5076013;28;20072;-83
2024/01/28 06:13:58;;;;;;;0.68;0.63;;;;;;;;;;5081515;28;20396;-84
2024/01/28 06:16:23;;;;;;;1.50;1.25;;;;;;;;;;5074494;28;20044;-83
2024/01/28 06:18:49;;;;;;;2.10;1.15;;;;;;;;;;5078393;28;20124;-82
2024/01/28 06:21:14;;;;;;;1.50;0.77;;;;;;;;;;5080279;28;20029;-82
2024/01/28 06:23:44;;;;;;;0.47;0.47;;;;;;;;;;5081295;28;20111;-82
2024/01/28 06:26:09;;;;;;;1.85;1.35;;;;;;;;;;5076512;28;20028;-82
2024/01/28 06:28:35;;;;;;;2.75;1.48;;;;;;;;;;5073203;28;20047;-81
2024/01/28 06:31:00;;;;;;;1.55;1.45;;;;;;;;;;5077052;28;20024;-81
2024/01/28 06:33:25;;;;;;;2.83;1.48;;;;;;;;;;5079197;28;20024;-84
2024/01/28 06:35:51;;;;;;;0.38;0.38;;;;;;;;;;5074346;28;20028;-81
2024/01/28 06:38:18;;;;;;;3.47;2.35;;;;;;;;;;5069543;28;20024;-82
2024/01/28 06:40:44;;;;;;;0.45;0.45;;;;;;;;;;5071445;28;20025;-81
2024/01/28 06:43:09;;;;;;;2.65;2.15;;;;;;;;;;5069616;28;20032;-80
2024/01/28 06:45:34;;;;;;;0.80;0.70;;;;;;;;;;5068694;28;20036;-82
2024/01/28 06:48:00;;;;;;;1.95;1.45;;;;;;;;;;5067281;28;20074;-83
2024/01/28 06:50:25;;;;;;;2.38;1.38;;;;;;;;;;5069091;28;20025;-84
2024/01/28 06:52:50;;;;;;;3.30;2.08;;;;;;;;;;5071533;28;20020;-82
2024/01/28 06:55:16;;;;;;;0.88;0.77;;;;;;;;;;5071772;28;20468;-80
2024/01/28 06:57:42;;;;;;;0.57;0.57;;;;;;;;;;5065297;28;20070;-82
2024/01/28 07:00:10;;;;;;;1.60;0.88;;;;;;;;;;5073260;28;20111;-81
2024/01/28 07:02:36;;;;;;;0.65;0.65;;;;;;;;;;5064205;28;20115;-79
2024/01/28 07:05:02;;;;;;;0.57;0.57;;;;;;;;;;5068717;28;20021;-82
2024/01/28 07:07:27;;;;;;;0.80;0.65;;;;;;;;;;5078815;28;20074;-83
2024/01/28 07:09:53;;;;;;;1.95;1.50;;;;;;;;;;5077321;28;20064;-81
2024/01/28 07:12:18;;;;;;;0.90;0.90;;;;;;;;;;5069967;28;20052;-81
2024/01/28 07:14:44;;;;;;;0.60;0.60;;;;;;;;;;5066664;28;20120;-79
2024/01/28 07:17:10;;;;;;;0.82;0.70;;;;;;;;;;5069841;28;20044;-80
2024/01/28 07:19:35;;;;;;;5.05;2.58;;;;;;;;;;5065199;28;20122;-81
2024/01/28 07:22:01;;;;;;;0.52;0.47;;;;;;;;;;5068675;28;20051;-81
2024/01/28 07:24:27;;;;;;;1.15;1.00;;;;;;;;;;5077639;28;20099;-81
2024/01/28 07:26:53;;;;;;;1.00;0.90;;;;;;;;;;5081586;28;20079;-82
2024/01/28 07:29:19;;;;;;;1.92;1.75;;;;;;;;;;5082813;28;20020;-81
2024/01/28 07:31:44;;;;;;;1.13;0.90;;;;;;;;;;5080087;28;20036;-82
2024/01/28 07:34:10;;;;;;;0.90;0.90;;;;;;;;;;5081821;28;20383;-80
2024/01/28 07:36:36;;;;;;;1.10;1.00;;;;;;;;;;5080101;28;20033;-85
2024/01/28 07:39:04;;;;;;;2.20;0.82;;;;;;;;;;5081182;28;20104;-83
2024/01/28 07:41:34;;;;;;;1.63;1.27;;;;;;;;;;5080543;28;20020;-83
2024/01/28 07:44:00;;;;;;;0.63;0.45;;;;;;;;;;5079421;28;20365;-83
2024/01/28 07:46:25;;;;;;;1.58;1.15;;;;;;;;;;5079137;28;20036;-83
2024/01/28 07:48:51;;;;;;;0.40;0.40;;;;;;;;;;5080276;28;20028;-85
2024/01/28 07:51:16;;;;;;;0.50;0.40;;;;;;;;;;5081406;28;20036;-83
2024/01/28 07:53:41;;;;;;;0.95;0.95;;;;;;;;;;5079093;28;20484;-83
2024/01/28 07:56:07;;;;;;;0.57;0.57;;;;;;;;;;5080991;28;20035;-81
2024/01/28 07:58:32;;;;;;;0.63;0.63;;;;;;;;;;5086567;28;20031;-84
2024/01/28 08:00:58;;;;;;;0.32;0.32;;;;;;;;;;5084936;28;20352;-84
2024/01/28 08:03:23;;;;;;;0.22;0.22;;;;;;;;;;5082051;28;20036;-82
2024/01/28 08:05:49;;;;;;;0.55;0.55;;;;;;;;;;5080830;28;20101;-81
2024/01/28 08:08:14;;;;;;;1.48;1.38;;;;;;;;;;5083415;28;20043;-85
2024/01/28 08:10:40;;;;;;;0.73;0.73;;;;;;;;;;5083251;28;20020;-83
2024/01/28 08:13:06;;;;;;;0.75;0.40;;;;;;;;;;5084579;28;20399;-85
2024/01/28 08:15:31;;;;;;;2.05;0.68;;;;;;;;;;5083676;28;20028;-82
2024/01/28 08:17:56;;;;;;;3.03;0.93;;;;;;;;;;5080813;28;20059;-84
2024/01/28 08:20:22;;;;;;;0.77;0.77;;;;;;;;;;5086697;28;20035;-84
2024/01/28 08:22:47;;;;;;;0.60;0.60;;;;;;;;;;5085044;28;20032;-84
2024/01/28 08:25:13;;;;;;;2.38;1.10;;;;;;;;;;5082078;28;20055;-82
2024/01/28 08:27:39;;;;;;;1.23;1.20;;;;;;;;;;5079731;28;20024;-83
2024/01/28 08:30:08;;;;;;;0.70;0.70;;;;;;;;;;5083924;28;20084;-85
2024/01/28 08:32:34;;;;;;;0.95;0.90;;;;;;;;;;5082154;28;20476;-86
2024/01/28 08:34:59;;;;;;;1.45;1.35;;;;;;;;;;5083130;28;20041;-83
2024/01/28 08:37:25;;;;;;;0.65;0.50;;;;;;;;;;5083675;28;20089;-85
2024/01/28 08:39:50;;;;;;;0.40;0.40;;;;;;;;;;5085656;28;20048;-83
2024/01/28 08:42:17;;;;;;;1.02;0.68;;;;;;;;;;5082776;28;20073;-82
2024/01/28 08:44:42;;;;;;;1.63;1.50;;;;;;;;;;5082311;28;20024;-81
2024/01/28 08:47:08;;;;;;;0.20;0.20;;;;;;;;;;5080862;28;20028;-84
2024/01/28 08:49:33;;;;;;;5.07;1.45;;;;;;;;;;5082756;28;20107;-85
2024/01/28 08:51:58;;;;;;;1.63;1.13;;;;;;;;;;5088746;28;20036;-81
2024/01/28 08:54:24;;;;;;;0.32;0.32;;;;;;;;;;5081245;28;20068;-81
2024/01/28 08:56:50;;;;;;;0.45;0.45;;;;;;;;;;5080637;28;20032;-81
2024/01/28 08:59:19;;;;;;;1.10;1.00;;;;;;;;;;5083949;28;20032;-83
2024/01/28 09:01:47;;;;;;;2.63;1.27;;;;;;;;;;5087754;28;20032;-82
2024/01/28 09:04:12;;;;;;;0.70;0.70;;;;;;;;;;5083467;28;20024;-85
2024/01/28 09:06:38;;;;;;;1.27;1.23;;;;;;;;;;5083219;28;20081;-84
2024/01/28 09:09:08;;;;;;;0.82;0.68;;;;;;;;;;5079651;28;20375;-82
2024/01/28 09:11:37;;;;;;;2.45;0.68;;;;;;;;;;5080894;28;20052;-84
2024/01/28 09:14:05;;;;;;;2.60;2.05;;;;;;;;;;5080453;28;20491;-85
2024/01/28 09:16:35;;;;;;;0.40;0.40;;;;;;;;;;5085086;28;20044;-85
2024/01/28 09:19:03;;;;;;;2.58;1.33;;;;;;;;;;5078384;28;20506;-85
2024/01/28 09:21:32;;;;;;;2.00;1.55;;;;;;;;;;5075286;28;20040;-85
2024/01/28 09:23:58;;;;;;;1.08;0.95;;;;;;;;;;5072460;28;20036;-85
2024/01/28 09:26:32;;;;;;;2.53;1.65;;;;;;;;;;5079100;28;20028;-85
2024/01/28 09:29:06;;;;;;;3.25;1.88;;;;;;;;;;5079266;28;20055;-84
2024/01/28 09:31:32;;;;;;;2.83;1.35;;;;;;;;;;5074525;28;20032;-87
2024/01/28 09:33:58;;;;;;;1.25;1.00;;;;;;;;;;5070216;28;20032;-83
2024/01/28 09:36:23;;;;;;;15.25;3.00;;;;;;;;;;5063000;28;20031;-84
2024/01/28 09:38:49;;;;;;;2.30;1.15;;;;;;;;;;5061706;28;20515;-81
2024/01/28 09:41:37;;;;;;;1.20;1.10;;;;;;;;;;5066389;28;20036;-84
2024/01/28 09:44:03;;;;;;;1.40;1.30;;;;;;;;;;5062185;28;20032;-85
2024/01/28 09:46:30;;;;;;;0.70;0.65;;;;;;;;;;5063501;28;20036;-82
2024/01/28 09:48:57;;;;;;;3.63;2.67;;;;;;;;;;5062403;28;20048;-83
2024/01/28 09:51:23;;;;;;;2.83;1.67;;;;;;;;;;5074368;28;20490;-85
2024/01/28 09:53:48;;;;;;;1.80;1.45;;;;;;;;;;5074096;28;20069;-83
2024/01/28 09:56:16;;;;;;;1.65;1.30;;;;;;;;;;5067358;28;20036;-85
2024/01/28 09:58:42;;;;;;;0.45;0.45;;;;;;;;;;5072717;28;20892;-82
2024/01/28 10:01:10;;;;;;;0.50;0.50;;;;;;;;;;5069428;28;20032;-84
2024/01/28 10:03:36;;;;;;;1.25;1.10;;;;;;;;;;5073463;28;20028;-85
2024/01/28 10:06:01;;;;;;;0.70;0.70;;;;;;;;;;5071808;28;20042;-81
2024/01/28 10:08:27;;;;;;;1.25;1.10;;;;;;;;;;5071700;28;20024;-82
2024/01/28 10:10:55;;;;;;;5.85;1.10;;;;;;;;;;5072754;28;20082;-84
2024/01/28 10:13:21;;;;;;;2.22;1.33;;;;;;;;;;5071814;28;20035;-84
2024/01/28 10:15:55;;;;;;;0.75;0.75;;;;;;;;;;5082243;28;20495;-84
2024/01/28 10:18:22;;;;;;;0.93;0.93;;;;;;;;;;5078991;28;20062;-83
2024/01/28 10:20:48;;;;;;;1.63;0.93;;;;;;;;;;5084397;28;20024;-83
2024/01/28 10:23:14;;;;;;;1.10;1.00;;;;;;;;;;5074606;28;20027;-82
2024/01/28 10:25:40;;;;;;;2.03;1.92;;;;;;;;;;5082513;28;20039;-85
2024/01/28 10:28:06;;;;;;;3.55;1.42;;;;;;;;;;5078614;28;20036;-83
2024/01/28 10:30:33;;;;;;;0.93;0.80;;;;;;;;;;5080091;28;20036;-83
2024/01/28 10:32:59;;;;;;;1.60;1.00;;;;;;;;;;5078667;28;20023;-85
2024/01/28 10:35:25;;;;;;;1.65;1.55;;;;;;;;;;5074305;28;20039;-83
2024/01/28 10:37:56;;;;;;;1.63;1.48;;;;;;;;;;5079247;28;20033;-84
2024/01/28 10:40:34;;;;;;;2.10;1.75;;;;;;;;;;5084404;28;20024;-83
2024/01/28 10:43:02;;;;;;;3.47;2.08;;;;;;;;;;5078662;28;20032;-80
2024/01/28 10:45:29;;;;;;;0.80;0.80;;;;;;;;;;5078856;28;20047;-82
2024/01/28 10:47:56;;;;;;;0.98;0.98;;;;;;;;;;5081854;28;20494;-84
2024/01/28 10:50:28;;;;;;;1.83;1.55;;;;;;;;;;5075997;28;20036;-84
2024/01/28 10:52:53;;;;;;;0.85;0.82;;;;;;;;;;5081115;28;20444;-85
2024/01/28 10:55:21;;;;;;;5.85;1.10;;;;;;;;;;5081256;28;20052;-84
2024/01/28 10:57:47;;;;;;;0.80;0.80;;;;;;;;;;5082352;28;20082;-84
2024/01/28 11:00:16;;;;;;;1.48;1.17;;;;;;;;;;5079795;28;20359;-85
2024/01/28 11:02:42;;;;;;;1.95;1.10;;;;;;;;;;5078980;28;20069;-85
2024/01/28 11:05:09;;;;;;;1.70;1.60;;;;;;;;;;5082173;28;20027;-83
2024/01/28 11:07:37;;;;;;;0.65;0.65;;;;;;;;;;5076703;28;20084;-85
2024/01/28 11:10:05;;;;;;;2.08;1.67;;;;;;;;;;5077759;28;20475;-83
2024/01/28 11:12:34;;;;;;;1.50;0.85;;;;;;;;;;5076952;28;20031;-85
2024/01/28 11:15:00;;;;;;;6.45;1.48;;;;;;;;;;5080302;28;20062;-88
2024/01/28 11:17:36;;;;;;;2.15;1.85;;;;;;;;;;5081658;28;20068;-85
2024/01/28 11:20:09;;;;;;;0.85;0.63;;;;;;;;;;5083316;28;20379;-84
2024/01/28 11:22:53;;;;;;;4.47;1.45;;;;;;;;;;5082544;28;20049;-84
2024/01/28 11:25:20;;;;;;;1.98;1.83;;;;;;;;;;5077951;28;20494;-86
2024/01/28 11:27:50;;;;;;;0.93;0.90;;;;;;;;;;5082745;28;20032;-83
2024/01/28 11:30:20;;;;;;;3.15;2.63;;;;;;;;;;5084701;28;20025;-86
2024/01/28 11:32:46;;;;;;;1.52;1.30;;;;;;;;;;5085136;28;20081;-89
2024/01/28 11:35:21;;;;;;;1.70;1.40;;;;;;;;;;5086533;28;20832;-85
2024/01/28 11:37:57;;;;;;;1.75;0.90;;;;;;;;;;5083462;28;20020;-84
2024/01/28 11:40:35;;;;;;;3.35;1.35;;;;;;;;;;5085049;28;20093;-83
2024/01/28 11:43:12;;;;;;;1.05;0.95;;;;;;;;;;5086937;28;20110;-84
2024/01/28 11:45:38;;;;;;;1.85;1.05;;;;;;;;;;5086599;28;20036;-85
2024/01/28 11:48:10;;;;;;;1.48;1.38;;;;;;;;;;5083937;28;20444;-85
2024/01/28 11:50:39;;;;;;;1.55;1.10;;;;;;;;;;5084527;28;20019;-84
2024/01/28 11:53:05;;;;;;;1.50;0.70;;;;;;;;;;5081710;28;20020;-84
2024/01/28 11:55:34;;;;;;;1.85;1.33;;;;;;;;;;5081662;28;20048;-82
2024/01/28 11:58:00;;;;;;;2.30;1.20;;;;;;;;;;5083648;28;20032;-85
2024/01/28 12:00:26;;;;;;;3.03;1.88;;;;;;;;;;5084695;28;20033;-82
2024/01/28 12:02:52;;;;;;;0.82;0.80;;;;;;;;;;5089413;28;20034;-83
2024/01/28 12:05:18;;;;;;;1.80;1.52;;;;;;;;;;5086621;28;20024;-85
2024/01/28 12:07:46;;;;;;;8.27;3.83;;;;;;;;;;5081744;28;20032;-85
2024/01/28 12:10:13;;;;;;;2.30;1.45;;;;;;;;;;5082842;28;20030;-84
2024/01/28 12:12:42;;;;;;;2.25;1.17;;;;;;;;;;5078855;28;20059;-85
2024/01/28 12:15:11;;;;;;;4.43;2.05;;;;;;;;;;5083939;28;20040;-84
2024/01/28 12:17:38;;;;;;;1.63;1.35;;;;;;;;;;5082254;28;20040;-85
2024/01/28 12:20:04;;;;;;;3.17;2.45;;;;;;;;;;5086677;28;20024;-86
2024/01/28 12:22:41;;;;;;;3.05;1.83;;;;;;;;;;5084597;28;20040;-88
2024/01/28 12:25:11;;;;;;;4.40;1.88;;;;;;;;;;5080740;28;20024;-82
2024/01/28 12:27:38;;;;;;;3.03;0.65;;;;;;;;;;5088054;28;20024;-81
2024/01/28 12:30:05;;;;;;;1.75;0.93;;;;;;;;;;5082997;28;20028;-85
2024/01/28 12:32:30;;;;;;;3.03;1.48;;;;;;;;;;5065195;28;20384;-86
2024/01/28 12:35:06;;;;;;;;;;;;;;;;;;;;;
2024/01/28 12:37:38;;;;;;;4.47;2.03;;;;;;;;;;5086160;28;20030;-87
2024/01/28 12:40:08;;;;;;;1.65;1.23;;;;;;;;;;5085388;28;20024;-87
2024/01/28 12:42:35;;;;;;;2.67;1.17;;;;;;;;;;5082989;28;20035;-83
2024/01/28 12:45:01;;;;;;;0.63;0.60;;;;;;;;;;5079317;28;20154;-86
2024/01/28 12:47:26;;;;;;;2.92;2.03;;;;;;;;;;5086968;28;20023;-84
2024/01/28 12:49:52;;;;;;;1.35;1.25;;;;;;;;;;5081186;28;20063;-86
2024/01/28 12:52:17;;;;;;;1.63;1.35;;;;;;;;;;5083190;28;20077;-85
2024/01/28 12:54:42;;;;;;;2.90;1.10;;;;;;;;;;5082618;28;20034;-85
2024/01/28 12:57:08;;;;;;;3.60;2.33;;;;;;;;;;5085863;28;20031;-87
2024/01/28 12:59:33;;;;;;;5.32;2.97;;;;;;;;;;5079040;28;20020;-86
2024/01/28 13:01:59;;;;;;;1.90;1.70;;;;;;;;;;5088592;28;20025;-85
2024/01/28 13:04:24;;;;;;;2.13;1.90;;;;;;;;;;5083720;28;20067;-82
2024/01/28 13:06:50;;;;;;;2.08;1.00;;;;;;;;;;5083846;28;20468;-83
2024/01/28 13:09:18;;;;;;;3.92;2.85;;;;;;;;;;5084306;28;20023;-84
2024/01/28 13:11:43;;;;;;;2.42;1.85;;;;;;;;;;5082361;28;20039;-83
2024/01/28 13:14:09;;;;;;;6.18;2.10;;;;;;;;;;5084000;28;20361;-83
2024/01/28 13:16:36;;;;;;;2.30;1.42;;;;;;;;;;5083897;28;20492;-84
2024/01/28 13:19:02;;;;;;;1.20;1.10;;;;;;;;;;5083505;28;20103;-83
2024/01/28 13:21:27;;;;;;;4.50;3.17;;;;;;;;;;5079735;28;20158;-86
2024/01/28 13:23:53;;;;;;;3.05;2.42;;;;;;;;;;5086323;28;20028;-85
2024/01/28 13:26:20;;;;;;;2.08;1.98;;;;;;;;;;5080836;28;20028;-85
2024/01/28 13:28:46;;;;;;;1.77;1.65;;;;;;;;;;5077473;28;20361;-87
2024/01/28 13:31:14;;;;;;;2.58;2.08;;;;;;;;;;5078580;28;20031;-84
2024/01/28 13:33:39;;;;;;;5.40;2.38;;;;;;;;;;5085587;28;20467;-85
2024/01/28 13:36:11;;;;;;;1.73;1.63;;;;;;;;;;5078942;28;20086;-82
2024/01/28 13:38:36;;;;;;;4.20;1.55;;;;;;;;;;5081023;28;20035;-84
2024/01/28 13:41:01;;;;;;;1.70;1.42;;;;;;;;;;5082404;28;20024;-86
2024/01/28 13:43:33;;;;;;;5.05;2.92;;;;;;;;;;5082372;28;20058;-85
2024/01/28 13:45:59;;;;;;;4.55;2.63;;;;;;;;;;5086255;28;20036;-82
2024/01/28 13:48:24;;;;;;;4.03;1.67;;;;;;;;;;5083000;28;20383;-84
2024/01/28 13:50:50;;;;;;;1.85;1.40;;;;;;;;;;5076246;28;20031;-83
2024/01/28 13:53:15;;;;;;;2.00;1.83;;;;;;;;;;5081789;28;20025;-82
2024/01/28 13:55:40;;;;;;;1.42;1.33;;;;;;;;;;5084105;28;20077;-82
2024/01/28 13:58:06;;;;;;;0.93;0.85;;;;;;;;;;5083093;28;20036;-83
2024/01/28 14:00:32;;;;;;;0.32;0.32;;;;;;;;;;5078608;28;20047;-83
2024/01/28 14:02:57;;;;;;;0.40;0.40;;;;;;;;;;5081647;28;20077;-85
2024/01/28 14:05:22;;;;;;;0.90;0.85;;;;;;;;;;5080177;28;20024;-81
2024/01/28 14:07:48;;;;;;;3.50;2.05;;;;;;;;;;5079824;28;20023;-83
2024/01/28 14:10:13;;;;;;;5.53;2.83;;;;;;;;;;5079443;28;20047;-85
2024/01/28 14:12:39;;;;;;;1.80;1.67;;;;;;;;;;5080396;28;20380;-85
2024/01/28 14:15:06;;;;;;;6.03;1.70;;;;;;;;;;5080148;28;20036;-83
2024/01/28 14:17:33;;;;;;;5.18;3.15;;;;;;;;;;5083680;28;20036;-83
2024/01/28 14:19:59;;;;;;;6.57;4.38;;;;;;;;;;5083228;28;20029;-84
2024/01/28 14:22:24;;;;;;;3.13;2.33;;;;;;;;;;5080381;28;20467;-84
2024/01/28 14:24:52;;;;;;;6.05;2.58;;;;;;;;;;5083303;28;20047;-83
2024/01/28 14:27:20;;;;;;;1.55;1.40;;;;;;;;;;5082039;28;20353;-84
2024/01/28 14:29:45;;;;;;;2.97;2.78;;;;;;;;;;5076478;28;20035;-85
2024/01/28 14:32:11;;;;;;;2.80;2.00;;;;;;;;;;5081478;28;20032;-84
2024/01/28 14:34:40;;;;;;;3.47;2.05;;;;;;;;;;5075870;28;20020;-86
2024/01/28 14:37:06;;;;;;;2.47;2.15;;;;;;;;;;5084191;28;20032;-84
2024/01/28 14:39:32;;;;;;;2.63;1.70;;;;;;;;;;5087119;28;20027;-83
2024/01/28 14:42:02;;;;;;;2.45;1.30;;;;;;;;;;5087125;28;20114;-84
2024/01/28 14:44:30;;;;;;;3.40;1.25;;;;;;;;;;5081979;28;20067;-84
2024/01/28 14:46:59;;;;;;;3.92;1.88;;;;;;;;;;5083619;28;20055;-83
2024/01/28 14:49:26;;;;;;;2.55;1.55;;;;;;;;;;5078099;28;20020;-84
2024/01/28 14:51:51;;;;;;;7.30;2.83;;;;;;;;;;5083986;28;20561;-84
2024/01/28 14:54:20;;;;;;;4.50;1.73;;;;;;;;;;5081956;28;20051;-81
2024/01/28 14:56:46;;;;;;;2.55;2.35;;;;;;;;;;5086944;28;20028;-85
2024/01/28 14:59:18;;;;;;;1.75;1.65;;;;;;;;;;5083016;28;20081;-83